createdAt,value
2022-10-13T00:01:35.631Z,20.40
2022-10-13T00:04:04.679Z,12.13
2022-10-13T00:06:33.231Z,12.50
2022-10-13T00:09:01.763Z,9.50
2022-10-13T00:11:31.753Z,20.13
2022-10-13T00:14:04.124Z,25.40
2022-10-13T00:16:38.585Z,16.63
2022-10-13T00:19:09.726Z,14.48
2022-10-13T00:21:40.324Z,23.92
2022-10-13T00:24:12.696Z,11.48
2022-10-13T00:26:41.260Z,11.30
2022-10-13T00:29:13.524Z,9.68
2022-10-13T00:31:43.473Z,9.15
2022-10-13T00:34:12.012Z,13.35
2022-10-13T00:36:40.585Z,13.35
2022-10-13T00:39:09.379Z,8.63
2022-10-13T00:41:38.085Z,9.63
2022-10-13T00:44:28.272Z,12.45
2022-10-13T00:46:58.328Z,14.43
2022-10-13T00:49:27.006Z,9.25
2022-10-13T00:51:55.591Z,9.43
2022-10-13T00:54:26.939Z,7.65
2022-10-13T00:56:56.086Z,11.90
2022-10-13T00:59:29.415Z,11.18
2022-10-13T01:02:01.241Z,10.80
2022-10-13T01:04:38.352Z,17.35
2022-10-13T01:07:07.787Z,12.98
2022-10-13T01:09:37.905Z,13.65
2022-10-13T01:12:22.551Z,9.30
2022-10-13T01:14:59.841Z,9.80
2022-10-13T01:17:44.538Z,7.88
2022-10-13T01:20:54.126Z,11.60
2022-10-13T01:24:20.314Z,10.82
2022-10-13T01:27:13.866Z,8.90
2022-10-13T01:30:17.529Z,6.80
2022-10-13T01:33:15.416Z,12.15
2022-10-13T01:36:02.123Z,8.82
2022-10-13T01:38:41.108Z,10.90
2022-10-13T01:41:23.933Z,9.70
2022-10-13T01:44:19.548Z,19.35
2022-10-13T01:46:57.456Z,10.00
2022-10-13T01:49:33.602Z,9.60
2022-10-13T01:52:07.556Z,12.32
2022-10-13T01:54:36.825Z,12.95
2022-10-13T01:57:05.886Z,18.85
2022-10-13T01:59:38.621Z,19.25
2022-10-13T02:02:20.282Z,9.50
2022-10-13T02:05:04.985Z,11.18
2022-10-13T02:07:46.047Z,8.05
2022-10-13T02:10:23.901Z,15.65
2022-10-13T02:12:58.857Z,9.73
2022-10-13T02:15:35.000Z,11.25
2022-10-13T02:18:10.687Z,10.00
2022-10-13T02:20:41.803Z,19.95
2022-10-13T02:23:16.802Z,21.10
2022-10-13T02:25:47.294Z,16.10
2022-10-13T02:28:18.103Z,15.68
2022-10-13T02:30:48.005Z,12.35
2022-10-13T02:33:18.560Z,11.77
2022-10-13T02:35:47.353Z,9.90
2022-10-13T02:38:16.104Z,13.20
2022-10-13T02:40:45.238Z,11.73
2022-10-13T02:43:14.019Z,14.02
2022-10-13T02:45:42.707Z,10.90
2022-10-13T02:48:11.601Z,9.27
2022-10-13T02:50:41.850Z,12.68
2022-10-13T02:53:10.596Z,8.40
2022-10-13T02:55:39.300Z,10.15
2022-10-13T02:58:08.004Z,11.95
2022-10-13T03:00:39.630Z,9.23
2022-10-13T03:03:08.701Z,13.80
2022-10-13T03:05:37.472Z,8.98
2022-10-13T03:08:07.936Z,9.20
2022-10-13T03:10:36.705Z,9.20
2022-10-13T03:13:05.938Z,10.35
2022-10-13T03:15:34.723Z,15.35
2022-10-13T03:18:06.487Z,12.10
2022-10-13T03:20:35.278Z,9.73
2022-10-13T03:23:04.059Z,19.02
2022-10-13T03:25:34.234Z,13.70
2022-10-13T03:28:03.153Z,14.38
2022-10-13T03:30:31.947Z,9.63
2022-10-13T03:33:00.873Z,26.23
2022-10-13T03:35:29.591Z,16.70
2022-10-13T03:37:58.848Z,11.57
2022-10-13T03:40:28.499Z,12.85
2022-10-13T03:42:58.668Z,10.48
2022-10-13T03:45:27.568Z,16.90
2022-10-13T03:47:56.361Z,7.25
2022-10-13T03:50:26.440Z,9.80
2022-10-13T03:52:56.478Z,12.05
2022-10-13T03:55:25.273Z,10.80
2022-10-13T03:57:54.100Z,10.90
2022-10-13T04:00:24.752Z,15.35
2022-10-13T04:02:53.538Z,7.07
2022-10-13T04:05:22.263Z,9.18
2022-10-13T04:07:51.085Z,13.68
2022-10-13T04:10:29.130Z,7.82
2022-10-13T04:12:57.963Z,11.50
2022-10-13T04:15:28.354Z,12.65
2022-10-13T04:17:57.225Z,9.70
2022-10-13T04:20:25.989Z,10.10
2022-10-13T04:22:55.266Z,9.70
2022-10-13T04:25:24.159Z,9.95
2022-10-13T04:27:52.931Z,17.92
2022-10-13T04:30:21.662Z,8.48
2022-10-13T04:32:51.775Z,16.10
2022-10-13T04:35:20.489Z,21.55
2022-10-13T04:37:49.342Z,9.75
2022-10-13T04:40:18.429Z,11.57
2022-10-13T04:42:47.207Z,11.57
2022-10-13T04:45:16.193Z,7.90
2022-10-13T04:47:46.837Z,11.25
2022-10-13T04:50:17.442Z,19.48
2022-10-13T04:52:49.530Z,10.60
2022-10-13T04:55:18.425Z,11.38
2022-10-13T04:57:47.256Z,12.23
2022-10-13T05:00:17.288Z,10.40
2022-10-13T05:02:46.269Z,19.00
2022-10-13T05:05:16.430Z,8.98
2022-10-13T05:07:45.157Z,13.52
2022-10-13T05:10:14.047Z,7.88
2022-10-13T05:12:42.758Z,14.10
2022-10-13T05:15:12.203Z,13.05
2022-10-13T05:17:40.988Z,11.27
2022-10-13T05:20:12.333Z,13.25
2022-10-13T05:22:42.484Z,15.98
2022-10-13T05:25:11.927Z,14.25
2022-10-13T05:27:40.703Z,8.95
2022-10-13T05:30:13.101Z,20.67
2022-10-13T05:32:41.813Z,13.25
2022-10-13T05:35:11.235Z,15.27
2022-10-13T05:37:43.786Z,12.65
2022-10-13T05:40:13.884Z,10.80
2022-10-13T05:42:43.102Z,14.50
2022-10-13T05:45:13.659Z,15.88
2022-10-13T05:47:42.446Z,15.07
2022-10-13T05:50:11.738Z,8.95
2022-10-13T05:52:45.502Z,15.05
2022-10-13T05:55:18.818Z,9.68
2022-10-13T05:57:52.479Z,11.15
2022-10-13T06:00:22.388Z,12.43
2022-10-13T06:02:56.385Z,12.52
2022-10-13T06:05:28.612Z,9.88
2022-10-13T06:07:59.886Z,23.85
2022-10-13T06:10:29.642Z,17.30
2022-10-13T06:12:58.435Z,19.25
2022-10-13T06:15:28.446Z,13.93
2022-10-13T06:17:58.358Z,18.88
2022-10-13T06:20:27.773Z,16.00
2022-10-13T06:22:58.194Z,10.35
2022-10-13T06:25:27.003Z,12.82
2022-10-13T06:27:55.845Z,17.40
2022-10-13T06:30:24.808Z,10.13
2022-10-13T06:32:56.636Z,17.48
2022-10-13T06:35:25.432Z,20.55
2022-10-13T06:37:54.197Z,17.67
2022-10-13T06:40:24.514Z,15.05
2022-10-13T06:42:53.479Z,17.00
2022-10-13T06:45:24.591Z,12.85
2022-10-13T06:47:55.304Z,12.60
2022-10-13T06:50:24.794Z,15.50
2022-10-13T06:52:53.707Z,12.98
2022-10-13T06:55:23.941Z,19.77
2022-10-13T06:57:52.756Z,14.85
2022-10-13T07:00:21.752Z,15.68
2022-10-13T07:02:52.962Z,16.25
2022-10-13T07:05:21.744Z,20.55
2022-10-13T07:07:53.332Z,14.60
2022-10-13T07:10:23.734Z,24.92
2022-10-13T07:12:52.729Z,17.20
2022-10-13T07:15:21.553Z,13.47
2022-10-13T07:17:53.962Z,14.48
2022-10-13T07:20:23.188Z,20.27
2022-10-13T07:22:56.120Z,13.10
2022-10-13T07:25:28.496Z,14.80
2022-10-13T07:27:57.715Z,14.80
2022-10-13T07:30:26.809Z,13.93
2022-10-13T07:32:55.795Z,15.27
2022-10-13T07:35:29.672Z,12.03
2022-10-13T07:37:59.738Z,16.20
2022-10-13T07:40:29.942Z,18.97
2022-10-13T07:42:59.164Z,18.17
2022-10-13T07:45:28.129Z,21.87
2022-10-13T07:47:57.539Z,20.17
2022-10-13T07:50:26.315Z,18.53
2022-10-13T07:52:55.122Z,16.90
2022-10-13T07:55:23.881Z,18.03
2022-10-13T07:57:57.600Z,19.80
2022-10-13T08:00:26.319Z,15.93
2022-10-13T08:02:55.145Z,15.33
2022-10-13T08:05:23.948Z,22.37
2022-10-13T08:07:55.960Z,22.20
2022-10-13T08:10:29.349Z,14.73
2022-10-13T08:12:59.477Z,14.87
2022-10-13T08:15:28.852Z,15.30
2022-10-13T08:17:57.753Z,21.00
2022-10-13T08:20:36.190Z,15.80
2022-10-13T08:23:13.350Z,19.20
2022-10-13T08:25:50.519Z,17.07
2022-10-13T08:28:24.583Z,22.10
2022-10-13T08:30:55.564Z,18.30
2022-10-13T08:33:25.315Z,15.90
2022-10-13T08:35:55.038Z,13.17
2022-10-13T08:38:26.253Z,17.93
2022-10-13T08:40:55.466Z,16.20
2022-10-13T08:43:27.670Z,19.07
2022-10-13T08:46:02.073Z,19.43
2022-10-13T08:48:43.734Z,17.00
2022-10-13T08:51:17.304Z,20.77
2022-10-13T08:53:48.320Z,19.13
2022-10-13T08:56:23.011Z,21.83
2022-10-13T08:58:56.782Z,27.17
2022-10-13T09:01:30.850Z,17.57
2022-10-13T09:04:18.052Z,16.83
2022-10-13T09:06:54.515Z,15.43
2022-10-13T09:09:23.411Z,20.47
2022-10-13T09:11:53.241Z,14.70
2022-10-13T09:14:28.516Z,21.57
2022-10-13T09:20:03.728Z,15.70
2022-10-13T09:22:35.432Z,25.03
2022-10-13T09:25:18.499Z,18.60
2022-10-13T09:27:50.993Z,20.53
2022-10-13T09:30:33.676Z,18.13
2022-10-13T09:33:25.544Z,22.60
2022-10-13T09:36:14.043Z,14.60
2022-10-13T09:38:46.698Z,16.47
2022-10-13T09:41:21.481Z,16.80
2022-10-13T09:44:13.525Z,23.03
2022-10-13T09:46:53.045Z,20.10
2022-10-13T09:49:39.753Z,16.47
2022-10-13T09:52:18.740Z,16.67
2022-10-13T09:54:51.266Z,29.97
2022-10-13T09:57:32.603Z,16.20
2022-10-13T10:00:21.510Z,15.10
2022-10-13T10:02:59.831Z,15.60
2022-10-13T10:05:39.665Z,17.00
2022-10-13T10:08:18.177Z,28.03
2022-10-13T10:10:47.888Z,17.10
2022-10-13T10:13:17.524Z,22.30
2022-10-13T10:15:57.837Z,21.73
2022-10-13T10:18:41.280Z,22.13
2022-10-13T10:21:19.719Z,17.80
2022-10-13T10:23:55.302Z,17.87
2022-10-13T10:26:35.707Z,22.53
2022-10-13T10:29:20.734Z,21.07
2022-10-13T10:32:14.224Z,19.43
2022-10-13T10:34:54.703Z,23.33
2022-10-13T10:37:49.352Z,21.33
2022-10-13T10:40:37.924Z,23.73
2022-10-13T10:43:44.861Z,17.73
2022-10-13T10:46:20.731Z,17.23
2022-10-13T10:48:53.806Z,17.87
2022-10-13T10:51:30.813Z,19.90
2022-10-13T10:54:24.521Z,23.50
2022-10-13T10:57:00.768Z,21.10
2022-10-13T10:59:51.486Z,25.03
2022-10-13T11:02:48.432Z,23.43
2022-10-13T11:05:19.064Z,25.30
2022-10-13T11:08:01.140Z,22.30
2022-10-13T11:10:31.074Z,20.53
2022-10-13T11:13:21.038Z,20.87
2022-10-13T11:15:49.895Z,18.27
2022-10-13T11:18:59.557Z,19.70
2022-10-13T11:22:19.533Z,19.50
2022-10-13T11:25:04.926Z,21.10
2022-10-13T11:27:54.772Z,19.93
2022-10-13T11:30:47.407Z,15.77
2022-10-13T11:34:04.830Z,15.73
2022-10-13T11:36:57.419Z,17.33
2022-10-13T11:40:14.846Z,21.43
2022-10-13T11:43:24.378Z,21.53
2022-10-13T11:46:37.393Z,22.00
2022-10-13T11:50:05.166Z,18.77
2022-10-13T11:53:19.433Z,14.13
2022-10-13T11:55:54.118Z,12.43
2022-10-13T11:58:26.042Z,19.40
2022-10-13T12:01:00.800Z,18.60
2022-10-13T12:03:32.324Z,13.60
2022-10-13T12:06:05.966Z,13.90
2022-10-13T12:08:37.302Z,17.30
2022-10-13T12:11:10.721Z,18.80
2022-10-13T12:13:39.776Z,14.37
2022-10-13T12:16:09.547Z,13.17
2022-10-13T12:18:41.280Z,12.00
2022-10-13T12:21:16.249Z,19.10
2022-10-13T12:23:45.468Z,17.30
2022-10-13T12:26:20.469Z,14.27
2022-10-13T12:28:55.650Z,11.50
2022-10-13T12:31:28.403Z,13.50
2022-10-13T12:33:59.630Z,12.53
2022-10-13T12:36:32.385Z,12.37
2022-10-13T12:39:06.297Z,11.23
2022-10-13T12:41:39.796Z,10.53
2022-10-13T12:44:16.102Z,10.10
2022-10-13T12:46:47.781Z,11.87
2022-10-13T12:49:21.890Z,14.73
2022-10-13T12:51:53.062Z,8.50
2022-10-13T12:54:30.151Z,9.97
2022-10-13T12:57:03.607Z,11.03
2022-10-13T12:59:34.631Z,10.37
2022-10-13T13:02:19.263Z,12.10
2022-10-13T13:04:48.485Z,13.17
2022-10-13T13:07:33.134Z,9.27
2022-10-13T13:10:18.909Z,8.80
2022-10-13T13:12:51.174Z,8.20
2022-10-13T13:15:37.736Z,11.50
2022-10-13T13:18:42.336Z,8.77
2022-10-13T13:21:15.611Z,7.60
2022-10-13T13:23:51.191Z,10.10
2022-10-13T13:26:25.273Z,7.43
2022-10-13T13:28:57.860Z,8.40
2022-10-13T13:31:27.871Z,8.63
2022-10-13T13:33:57.197Z,9.53
2022-10-13T13:36:28.259Z,10.03
2022-10-13T13:38:57.407Z,13.00
2022-10-13T13:41:27.995Z,12.50
2022-10-13T13:43:58.806Z,13.93
2022-10-13T13:46:29.509Z,12.97
2022-10-13T13:48:58.551Z,14.00
2022-10-13T13:51:27.611Z,9.83
2022-10-13T13:53:56.827Z,14.33
2022-10-13T13:56:25.799Z,8.50
2022-10-13T13:58:54.817Z,11.67
2022-10-13T14:01:25.868Z,8.37
2022-10-13T14:03:54.779Z,10.13
2022-10-13T14:06:23.939Z,15.20
2022-10-13T14:08:52.845Z,11.17
2022-10-13T14:11:21.558Z,13.67
2022-10-13T14:13:50.364Z,9.90
2022-10-13T14:16:29.821Z,8.57
2022-10-13T14:18:59.860Z,9.10
2022-10-13T14:21:29.281Z,12.13
2022-10-13T14:23:58.986Z,11.87
2022-10-13T14:26:27.889Z,13.97
2022-10-13T14:28:57.221Z,12.50
2022-10-13T14:31:26.207Z,14.43
2022-10-13T14:33:56.658Z,11.60
2022-10-13T14:36:26.384Z,10.93
2022-10-13T14:38:55.549Z,12.83
2022-10-13T14:41:25.027Z,14.30
2022-10-13T14:43:55.526Z,11.73
2022-10-13T14:46:25.489Z,9.50
2022-10-13T14:48:56.626Z,12.57
2022-10-13T14:51:25.527Z,10.03
2022-10-13T14:53:54.240Z,9.33
2022-10-13T14:56:26.169Z,10.40
2022-10-13T14:58:59.676Z,13.80
2022-10-13T15:01:35.787Z,16.77
2022-10-13T15:04:06.385Z,9.83
2022-10-13T15:06:37.561Z,12.97
2022-10-13T15:09:06.789Z,11.83
2022-10-13T15:11:36.077Z,12.90
2022-10-13T15:14:04.854Z,13.13
2022-10-13T15:16:34.393Z,10.63
2022-10-13T15:19:06.118Z,9.20
2022-10-13T15:21:34.927Z,15.80
2022-10-13T15:24:05.314Z,11.90
2022-10-13T15:26:35.037Z,11.40
2022-10-13T15:29:04.226Z,11.27
2022-10-13T15:31:33.011Z,11.07
2022-10-13T15:34:03.277Z,15.90
2022-10-13T15:36:33.421Z,15.10
2022-10-13T15:39:02.184Z,12.17
2022-10-13T15:41:30.878Z,11.23
2022-10-13T15:43:59.810Z,14.93
2022-10-13T15:46:29.855Z,13.83
2022-10-13T15:49:00.067Z,13.03
2022-10-13T15:51:28.848Z,12.73
2022-10-13T15:53:59.021Z,12.17
2022-10-13T15:56:28.181Z,13.93
2022-10-13T15:58:57.510Z,17.73
2022-10-13T16:01:26.551Z,12.07
2022-10-13T16:03:56.242Z,20.10
2022-10-13T16:07:40.093Z,15.20
2022-10-13T16:10:14.215Z,13.57
2022-10-13T16:12:49.386Z,11.87
2022-10-13T16:15:20.170Z,13.70
2022-10-13T16:17:49.002Z,11.80
2022-10-13T16:20:18.301Z,12.33
2022-10-13T16:22:47.502Z,17.00
2022-10-13T16:25:18.229Z,17.93
2022-10-13T16:27:47.250Z,18.20
2022-10-13T16:31:14.057Z,14.77
2022-10-13T16:33:58.740Z,14.37
2022-10-13T16:36:31.414Z,22.20
2022-10-13T16:39:01.466Z,11.33
2022-10-13T16:41:31.967Z,17.73
2022-10-13T16:44:00.892Z,18.63
2022-10-13T16:46:30.712Z,17.50
2022-10-13T16:48:59.782Z,16.03
2022-10-13T16:51:31.275Z,21.30
2022-10-13T16:54:04.423Z,17.20
2022-10-13T16:56:35.455Z,16.43
2022-10-13T16:59:07.459Z,14.50
2022-10-13T17:01:37.721Z,17.83
2022-10-13T17:04:07.347Z,19.40
2022-10-13T17:06:39.427Z,21.30
2022-10-13T17:09:42.303Z,17.57
2022-10-13T17:12:45.291Z,16.40
2022-10-13T17:15:14.243Z,17.33
2022-10-13T17:17:43.475Z,15.30
2022-10-13T17:20:13.507Z,17.07
2022-10-13T17:22:42.850Z,26.60
2022-10-13T17:25:13.601Z,23.17
2022-10-13T17:27:42.964Z,16.80
2022-10-13T17:30:13.952Z,19.17
2022-10-13T17:32:43.063Z,16.83
2022-10-13T17:35:18.126Z,17.07
2022-10-13T17:37:50.236Z,18.00
2022-10-13T17:40:20.309Z,18.90
2022-10-13T17:42:49.134Z,18.30
2022-10-13T17:45:20.658Z,22.80
2022-10-13T17:47:50.729Z,16.70
2022-10-13T17:50:20.214Z,19.10
2022-10-13T17:52:49.834Z,20.97
2022-10-13T17:55:18.932Z,21.17
2022-10-13T17:57:47.848Z,16.97
2022-10-13T18:00:19.246Z,20.37
2022-10-13T18:02:49.243Z,28.30
2022-10-13T18:05:18.375Z,23.83
2022-10-13T18:07:47.289Z,19.13
2022-10-13T18:10:17.959Z,19.27
2022-10-13T18:12:46.842Z,20.53
2022-10-13T18:15:15.679Z,24.80
2022-10-13T18:17:46.408Z,23.83
2022-10-13T18:20:15.605Z,26.03
2022-10-13T18:22:44.767Z,22.10
2022-10-13T18:25:13.782Z,19.60
2022-10-13T18:27:43.285Z,18.17
2022-10-13T18:30:16.541Z,19.20
2022-10-13T18:32:50.217Z,19.43
2022-10-13T18:35:19.394Z,18.57
2022-10-13T18:37:52.600Z,23.80
2022-10-13T18:40:22.088Z,21.40
2022-10-13T18:42:54.697Z,23.23
2022-10-13T18:45:24.386Z,24.47
2022-10-13T18:47:54.625Z,18.90
2022-10-13T18:50:23.514Z,17.50
2022-10-13T18:52:52.293Z,21.83
2022-10-13T18:55:21.108Z,26.83
2022-10-13T18:57:50.183Z,20.10
2022-10-13T19:00:19.501Z,29.37
2022-10-13T19:02:48.263Z,19.17
2022-10-13T19:05:18.742Z,23.60
2022-10-13T19:07:47.511Z,26.03
2022-10-13T19:10:16.478Z,22.50
2022-10-13T19:12:45.378Z,26.23
2022-10-13T19:15:14.180Z,25.07
2022-10-13T19:17:42.997Z,19.43
2022-10-13T19:20:13.256Z,23.80
2022-10-13T19:22:43.606Z,25.70
2022-10-13T19:25:14.148Z,19.23
2022-10-13T19:27:43.224Z,19.27
2022-10-13T19:30:13.734Z,21.10
2022-10-13T19:32:42.522Z,23.23
2022-10-13T19:35:11.471Z,24.53
2022-10-13T19:37:42.381Z,22.67
2022-10-13T19:40:11.596Z,21.53
2022-10-13T19:42:40.488Z,24.30
2022-10-13T19:45:11.231Z,28.90
2022-10-13T19:47:40.326Z,23.50
2022-10-13T19:50:09.813Z,20.77
2022-10-13T19:52:38.662Z,31.60
2022-10-13T19:55:09.947Z,25.87
2022-10-13T19:57:38.872Z,29.23
2022-10-13T20:00:09.525Z,21.63
2022-10-13T20:02:41.351Z,26.07
2022-10-13T20:05:10.497Z,23.63
2022-10-13T20:07:39.314Z,21.20
2022-10-13T20:10:10.082Z,26.73
2022-10-13T20:12:40.804Z,34.67
2022-10-13T20:15:09.968Z,26.60
2022-10-13T20:17:38.908Z,20.77
2022-10-13T20:20:09.377Z,22.63
2022-10-13T20:22:39.623Z,23.73
2022-10-13T20:25:12.789Z,32.23
2022-10-13T20:27:41.873Z,32.77
2022-10-13T20:30:12.384Z,28.60
2022-10-13T20:32:41.148Z,30.43
2022-10-13T20:35:10.628Z,27.70
2022-10-13T20:37:39.590Z,29.30
2022-10-13T20:40:11.257Z,35.10
2022-10-13T20:42:40.193Z,28.70
2022-10-13T20:45:10.888Z,30.23
2022-10-13T20:47:41.158Z,29.50
2022-10-13T20:50:10.699Z,31.70
2022-10-13T20:52:39.877Z,30.10
2022-10-13T20:55:10.994Z,21.83
2022-10-13T20:57:39.822Z,29.53
2022-10-13T21:00:10.781Z,32.23
2022-10-13T21:02:39.593Z,27.33
2022-10-13T21:05:09.207Z,34.60
2022-10-13T21:07:39.192Z,24.57
2022-10-13T21:10:11.187Z,27.63
2022-10-13T21:12:40.025Z,31.50
2022-10-13T21:15:10.745Z,31.63
2022-10-13T21:17:42.411Z,29.80
2022-10-13T21:20:12.307Z,36.07
2022-10-13T21:22:41.074Z,31.83
2022-10-13T21:25:13.260Z,28.27
2022-10-13T21:27:42.009Z,40.27
2022-10-13T21:30:12.771Z,27.20
2022-10-13T21:32:41.570Z,40.93
2022-10-13T21:35:11.547Z,30.40
2022-10-13T21:37:40.447Z,28.27
2022-10-13T21:40:12.497Z,23.87
2022-10-13T21:42:41.435Z,26.90
2022-10-13T21:45:11.922Z,29.43
2022-10-13T21:47:40.697Z,32.33
2022-10-13T21:50:10.280Z,34.80
2022-10-13T21:52:39.428Z,29.60
2022-10-13T21:55:09.529Z,30.27
2022-10-13T21:57:39.732Z,38.80
2022-10-13T22:00:11.301Z,32.50
2022-10-13T22:02:41.705Z,41.97
2022-10-13T22:05:12.979Z,26.90
2022-10-13T22:07:41.754Z,34.70
2022-10-13T22:10:11.065Z,36.03
2022-10-13T22:12:41.306Z,32.80
2022-10-13T22:15:11.673Z,42.10
2022-10-13T22:17:40.523Z,36.97
2022-10-13T22:20:10.292Z,29.23
2022-10-13T22:22:39.125Z,35.33
2022-10-13T22:25:09.956Z,28.80
2022-10-13T22:27:40.135Z,29.50
2022-10-13T22:30:10.554Z,31.23
2022-10-13T22:32:39.396Z,35.07
2022-10-13T22:35:09.327Z,28.27
2022-10-13T22:37:38.093Z,26.90
2022-10-13T22:40:08.923Z,32.93
2022-10-13T22:42:37.748Z,39.17
2022-10-13T22:45:09.372Z,33.37
2022-10-13T22:47:38.117Z,31.60
2022-10-13T22:50:07.954Z,31.60
2022-10-13T22:52:36.847Z,30.67
2022-10-13T22:55:07.889Z,24.93
2022-10-13T22:57:38.189Z,30.53
2022-10-13T23:00:11.063Z,35.93
2022-10-13T23:02:42.290Z,31.00
2022-10-13T23:05:11.330Z,36.60
2022-10-13T23:07:40.166Z,32.40
2022-10-13T23:10:10.473Z,34.53
2022-10-13T23:12:39.829Z,30.97
2022-10-13T23:15:12.113Z,30.90
2022-10-13T23:17:40.991Z,27.00
2022-10-13T23:20:10.839Z,29.40
2022-10-13T23:22:39.667Z,28.70
2022-10-13T23:25:09.376Z,30.07
2022-10-13T23:27:39.718Z,27.37
2022-10-13T23:30:12.063Z,29.37
2022-10-13T23:32:41.058Z,31.03
2022-10-13T23:35:10.368Z,27.17
2022-10-13T23:37:39.232Z,41.53
2022-10-13T23:40:09.938Z,35.00
2022-10-13T23:42:38.935Z,29.80
2022-10-13T23:45:10.642Z,34.03
2022-10-13T23:47:39.424Z,28.33
2022-10-13T23:50:09.029Z,30.20
2022-10-13T23:52:37.866Z,34.80
2022-10-13T23:55:07.248Z,40.13
2022-10-13T23:57:36.063Z,31.80
